createdAt,value
2023-04-01T00:00:21.094Z,48.18
2023-04-01T00:01:21.113Z,49.27
2023-04-01T00:02:21.143Z,49.34
2023-04-01T00:03:21.121Z,51.21
2023-04-01T00:04:21.094Z,49.91
2023-04-01T00:05:21.041Z,48.16
2023-04-01T00:06:21.089Z,48.47
2023-04-01T00:07:21.046Z,47.77
2023-04-01T00:08:21.033Z,47.73
2023-04-01T00:09:21.022Z,47.59
2023-04-01T00:10:21.023Z,48.11
2023-04-01T00:11:21.075Z,48.13
2023-04-01T00:12:21.046Z,47.85
2023-04-01T00:13:21.013Z,50.33
2023-04-01T00:14:21.025Z,47.86
2023-04-01T00:15:20.984Z,48.53
2023-04-01T00:16:22.598Z,49.44
2023-04-01T00:17:22.033Z,48.07
2023-04-01T00:18:20.975Z,50.11
2023-04-01T00:19:20.978Z,48.73
2023-04-01T00:20:20.992Z,51.66
2023-04-01T00:21:20.968Z,48.23
2023-04-01T00:22:21.024Z,47.77
2023-04-01T00:23:20.946Z,53.55
2023-04-01T00:24:21.967Z,49.31
2023-04-01T00:25:20.958Z,50.04
2023-04-01T00:26:20.936Z,48.03
2023-04-01T00:27:20.948Z,48.46
2023-04-01T00:28:20.991Z,49.40
2023-04-01T00:29:21.025Z,48.00
2023-04-01T00:30:20.929Z,47.54
2023-04-01T00:31:20.976Z,48.58
2023-04-01T00:32:20.977Z,49.74
2023-04-01T00:33:20.941Z,48.73
2023-04-01T00:34:20.899Z,48.46
2023-04-01T00:35:20.902Z,49.87
2023-04-01T00:36:20.918Z,48.11
2023-04-01T00:37:20.897Z,47.34
2023-04-01T00:38:20.917Z,47.66
2023-04-01T00:39:20.880Z,48.23
2023-04-01T00:40:20.892Z,52.75
2023-04-01T00:41:20.875Z,52.51
2023-04-01T00:42:20.878Z,48.48
2023-04-01T00:43:20.930Z,48.09
2023-04-01T00:44:20.921Z,49.44
2023-04-01T00:45:20.852Z,48.40
2023-04-01T00:46:20.914Z,47.71
2023-04-01T00:47:20.838Z,50.10
2023-04-01T00:48:20.830Z,51.00
2023-04-01T00:49:20.853Z,50.67
2023-04-01T00:50:20.880Z,50.58
2023-04-01T00:51:20.832Z,50.72
2023-04-01T00:52:20.819Z,49.02
2023-04-01T00:53:20.850Z,50.07
2023-04-01T00:54:20.877Z,47.65
2023-04-01T00:55:20.804Z,48.27
2023-04-01T00:56:20.879Z,49.46
2023-04-01T00:57:20.828Z,48.30
2023-04-01T00:58:20.796Z,48.48
2023-04-01T00:59:20.791Z,47.80
2023-04-01T01:00:20.793Z,49.92
2023-04-01T01:01:20.865Z,48.29
2023-04-01T01:02:20.825Z,47.35
2023-04-01T01:03:20.820Z,47.34
2023-04-01T01:04:20.758Z,47.35
2023-04-01T01:05:20.785Z,47.54
2023-04-01T01:06:20.801Z,47.33
2023-04-01T01:07:20.765Z,47.31
2023-04-01T01:08:20.804Z,47.38
2023-04-01T01:09:20.766Z,47.45
2023-04-01T01:10:20.734Z,47.39
2023-04-01T01:11:20.756Z,47.45
2023-04-01T01:12:20.754Z,48.79
2023-04-01T01:13:20.732Z,51.11
2023-04-01T01:14:20.708Z,47.69
2023-04-01T01:15:20.764Z,47.36
2023-04-01T01:16:20.782Z,47.79
2023-04-01T01:17:20.818Z,50.42
2023-04-01T01:18:20.688Z,47.49
2023-04-01T01:19:20.694Z,47.51
2023-04-01T01:20:26.557Z,47.33
2023-04-01T01:21:22.679Z,47.32
2023-04-01T01:22:20.728Z,50.48
2023-04-01T01:23:20.663Z,54.10
2023-04-01T01:24:20.663Z,48.61
2023-04-01T01:25:21.650Z,51.21
2023-04-01T01:26:20.649Z,50.25
2023-04-01T01:27:20.685Z,48.85
2023-04-01T01:28:20.716Z,47.74
2023-04-01T01:29:20.649Z,49.77
2023-04-01T01:30:20.655Z,49.32
2023-04-01T01:31:20.636Z,49.63
2023-04-01T01:32:20.674Z,47.34
2023-04-01T01:33:20.708Z,47.28
2023-04-01T01:34:20.620Z,48.70
2023-04-01T01:35:20.648Z,48.35
2023-04-01T01:36:20.661Z,47.11
2023-04-01T01:37:20.636Z,47.05
2023-04-01T01:38:20.589Z,47.01
2023-04-01T01:39:20.582Z,48.97
2023-04-01T01:40:20.581Z,49.05
2023-04-01T01:41:20.574Z,48.24
2023-04-01T01:42:20.589Z,47.08
2023-04-01T01:43:20.657Z,47.15
2023-04-01T01:44:20.559Z,49.18
2023-04-01T01:45:20.537Z,47.72
2023-04-01T01:46:20.600Z,49.07
2023-04-01T01:47:20.542Z,49.31
2023-04-01T01:48:20.567Z,48.66
2023-04-01T01:49:20.536Z,49.76
2023-04-01T01:50:20.518Z,50.35
2023-04-01T01:51:20.523Z,49.98
2023-04-01T01:52:20.527Z,49.25
2023-04-01T01:53:20.565Z,53.95
2023-04-01T01:54:20.503Z,50.18
2023-04-01T01:55:20.492Z,49.03
2023-04-01T01:56:20.509Z,47.51
2023-04-01T01:57:20.489Z,48.27
2023-04-01T01:58:20.496Z,48.49
2023-04-01T01:59:20.532Z,48.64
2023-04-01T02:00:20.469Z,49.55
2023-04-01T02:01:20.503Z,48.80
2023-04-01T02:02:20.467Z,48.64
2023-04-01T02:03:20.476Z,51.27
2023-04-01T02:04:20.525Z,51.82
2023-04-01T02:05:20.476Z,49.83
2023-04-01T02:06:20.450Z,48.42
2023-04-01T02:07:20.434Z,50.60
2023-04-01T02:08:20.432Z,48.27
2023-04-01T02:09:20.424Z,53.07
2023-04-01T02:10:20.475Z,47.46
2023-04-01T02:11:20.401Z,48.98
2023-04-01T02:12:20.405Z,51.93
2023-04-01T02:13:20.409Z,47.54
2023-04-01T02:14:20.407Z,47.42
2023-04-01T02:15:20.418Z,51.00
2023-04-01T02:16:20.488Z,48.57
2023-04-01T02:17:20.397Z,47.89
2023-04-01T02:18:20.378Z,47.81
2023-04-01T02:19:20.368Z,48.38
2023-04-01T02:20:20.381Z,47.83
2023-04-01T02:21:20.377Z,47.21
2023-04-01T02:22:20.381Z,50.61
2023-04-01T02:23:20.340Z,49.45
2023-04-01T02:24:20.334Z,49.92
2023-04-01T02:25:20.332Z,48.15
2023-04-01T02:26:20.342Z,47.32
2023-04-01T02:27:20.366Z,46.94
2023-04-01T02:28:20.330Z,47.54
2023-04-01T02:29:20.324Z,48.49
2023-04-01T02:30:20.327Z,47.57
2023-04-01T02:31:20.398Z,47.05
2023-04-01T02:32:20.344Z,48.07
2023-04-01T02:33:20.332Z,51.66
2023-04-01T02:34:20.329Z,47.42
2023-04-01T02:35:20.280Z,47.53
2023-04-01T02:36:20.291Z,47.92
2023-04-01T02:37:20.260Z,48.98
2023-04-01T02:38:20.301Z,47.03
2023-04-01T02:39:20.258Z,47.00
2023-04-01T02:40:20.243Z,47.99
2023-04-01T02:41:20.250Z,46.88
2023-04-01T02:42:20.245Z,47.63
2023-04-01T02:43:20.283Z,47.84
2023-04-01T02:44:20.241Z,51.27
2023-04-01T02:45:20.226Z,48.74
2023-04-01T02:46:20.288Z,47.71
2023-04-01T02:47:20.212Z,46.82
2023-04-01T02:48:20.297Z,47.13
2023-04-01T02:49:20.214Z,50.12
2023-04-01T02:50:20.198Z,48.75
2023-04-01T02:51:20.198Z,47.54
2023-04-01T02:52:20.199Z,48.69
2023-04-01T02:53:20.254Z,51.93
2023-04-01T02:54:20.232Z,48.21
2023-04-01T02:55:20.205Z,48.10
2023-04-01T02:56:20.170Z,47.38
2023-04-01T02:57:20.229Z,52.36
2023-04-01T02:58:20.158Z,50.82
2023-04-01T02:59:20.182Z,48.89
2023-04-01T03:00:20.165Z,46.85
2023-04-01T03:01:20.189Z,48.68
2023-04-01T03:02:20.182Z,49.75
2023-04-01T03:03:20.193Z,51.01
2023-04-01T03:04:20.162Z,47.59
2023-04-01T03:05:20.125Z,47.62
2023-04-01T03:06:20.132Z,50.51
2023-04-01T03:07:20.126Z,50.26
2023-04-01T03:08:20.116Z,46.96
2023-04-01T03:09:20.147Z,47.89
2023-04-01T03:10:20.100Z,48.31
2023-04-01T03:11:20.090Z,49.54
2023-04-01T03:12:20.078Z,48.26
2023-04-01T03:13:20.089Z,51.48
2023-04-01T03:14:20.131Z,50.25
2023-04-01T03:15:20.111Z,48.31
2023-04-01T03:16:20.106Z,47.35
2023-04-01T03:17:20.069Z,51.42
2023-04-01T03:18:20.047Z,48.76
2023-04-01T03:19:20.064Z,48.77
2023-04-01T03:20:20.062Z,49.89
2023-04-01T03:21:20.050Z,50.52
2023-04-01T03:22:20.030Z,51.35
2023-04-01T03:23:20.022Z,53.71
2023-04-01T03:24:20.036Z,50.62
2023-04-01T03:25:20.063Z,49.13
2023-04-01T03:26:20.108Z,48.98
2023-04-01T03:27:20.009Z,50.79
2023-04-01T03:28:20.000Z,50.59
2023-04-01T03:29:19.994Z,50.44
2023-04-01T03:30:20.035Z,49.77
2023-04-01T03:31:21.636Z,47.91
2023-04-01T03:32:20.013Z,48.93
2023-04-01T03:33:19.972Z,48.00
2023-04-01T03:34:19.980Z,51.22
2023-04-01T03:35:19.971Z,47.19
2023-04-01T03:36:20.011Z,49.78
2023-04-01T03:37:19.958Z,49.96
2023-04-01T03:38:19.944Z,48.83
2023-04-01T03:39:19.946Z,49.52
2023-04-01T03:40:19.963Z,48.96
2023-04-01T03:41:19.999Z,50.49
2023-04-01T03:42:19.983Z,49.57
2023-04-01T03:43:19.911Z,47.21
2023-04-01T03:44:19.937Z,50.82
2023-04-01T03:45:19.914Z,49.04
2023-04-01T03:46:20.015Z,48.21
2023-04-01T03:47:19.909Z,47.24
2023-04-01T03:48:19.957Z,50.05
2023-04-01T03:49:19.888Z,49.60
2023-04-01T03:50:19.884Z,48.42
2023-04-01T03:51:19.875Z,49.62
2023-04-01T03:52:19.954Z,53.14
2023-04-01T03:53:19.907Z,51.98
2023-04-01T03:54:19.867Z,55.23
2023-04-01T03:55:19.867Z,47.92
2023-04-01T03:56:19.860Z,47.16
2023-04-01T03:57:19.865Z,53.01
2023-04-01T03:58:19.909Z,51.00
2023-04-01T03:59:19.843Z,52.05
2023-04-01T04:00:19.820Z,52.54
2023-04-01T04:01:19.830Z,50.09
2023-04-01T04:02:19.841Z,47.88
2023-04-01T04:03:19.952Z,49.98
2023-04-01T04:04:19.933Z,49.43
2023-04-01T04:05:19.819Z,49.32
2023-04-01T04:06:19.811Z,50.11
2023-04-01T04:07:19.795Z,50.65
2023-04-01T04:08:19.804Z,50.13
2023-04-01T04:09:19.835Z,50.82
2023-04-01T04:10:19.839Z,50.13
2023-04-01T04:11:19.786Z,51.64
2023-04-01T04:12:19.869Z,51.45
2023-04-01T04:13:19.875Z,51.26
2023-04-01T04:14:20.765Z,53.35
2023-04-01T04:15:19.820Z,52.56
2023-04-01T04:16:19.791Z,51.34
2023-04-01T04:17:19.750Z,52.74
2023-04-01T04:18:19.748Z,52.33
2023-04-01T04:19:19.752Z,53.83
2023-04-01T04:20:19.792Z,55.17
2023-04-01T04:21:19.760Z,53.45
2023-04-01T04:22:19.737Z,53.50
2023-04-01T04:23:19.731Z,53.86
2023-04-01T04:24:20.718Z,54.51
2023-04-01T04:25:19.761Z,53.14
2023-04-01T04:26:19.757Z,52.87
2023-04-01T04:27:19.704Z,53.64
2023-04-01T04:28:19.688Z,52.40
2023-04-01T04:29:19.762Z,54.87
2023-04-01T04:30:19.682Z,53.45
2023-04-01T04:31:19.743Z,53.75
2023-04-01T04:32:19.679Z,54.16
2023-04-01T04:33:19.738Z,53.99
2023-04-01T04:34:19.669Z,55.01
2023-04-01T04:35:19.655Z,56.06
2023-04-01T04:36:19.743Z,55.59
2023-04-01T04:37:19.757Z,53.89
2023-04-01T04:38:19.648Z,55.56
2023-04-01T04:39:19.645Z,55.29
2023-04-01T04:40:19.634Z,53.65
2023-04-01T04:41:19.675Z,54.73
2023-04-01T04:42:19.607Z,54.94
2023-04-01T04:43:19.655Z,55.11
2023-04-01T04:44:19.600Z,52.56
2023-04-01T04:45:19.607Z,55.52
2023-04-01T04:46:19.709Z,54.58
2023-04-01T04:47:19.716Z,54.22
2023-04-01T04:48:20.579Z,50.45
2023-04-01T04:49:19.606Z,54.38
2023-04-01T04:50:19.585Z,54.04
2023-04-01T04:51:19.629Z,53.67
2023-04-01T04:52:19.599Z,56.86
2023-04-01T04:53:19.685Z,50.98
2023-04-01T04:54:19.571Z,55.01
2023-04-01T04:55:19.566Z,54.96
2023-04-01T04:56:19.542Z,53.93
2023-04-01T04:57:20.586Z,55.33
2023-04-01T04:58:19.540Z,53.98
2023-04-01T04:59:19.519Z,50.73
2023-04-01T05:00:19.532Z,52.55
2023-04-01T05:01:19.571Z,53.74
2023-04-01T05:02:19.584Z,52.78
2023-04-01T05:03:19.639Z,54.47
2023-04-01T05:04:19.522Z,55.12
2023-04-01T05:05:19.492Z,52.71
2023-04-01T05:06:20.528Z,52.80
2023-04-01T05:07:19.502Z,54.82
2023-04-01T05:08:19.515Z,53.56
2023-04-01T05:09:19.469Z,54.71
2023-04-01T05:10:19.480Z,54.06
2023-04-01T05:11:19.482Z,51.62
2023-04-01T05:12:19.460Z,52.07
2023-04-01T05:13:19.481Z,54.19
2023-04-01T05:14:19.482Z,53.40
2023-04-01T05:15:19.439Z,53.37
2023-04-01T05:16:19.537Z,53.99
2023-04-01T05:17:19.463Z,54.76
2023-04-01T05:18:19.472Z,52.87
2023-04-01T05:19:19.491Z,52.58
2023-04-01T05:20:19.435Z,56.99
2023-04-01T05:21:19.440Z,52.48
2023-04-01T05:22:19.398Z,54.94
2023-04-01T05:23:19.444Z,52.22
2023-04-01T05:24:19.396Z,54.50
2023-04-01T05:25:19.415Z,53.64
2023-04-01T05:26:19.483Z,55.29
2023-04-01T05:27:19.384Z,53.57
2023-04-01T05:28:19.371Z,53.81
2023-04-01T05:29:19.360Z,56.25
2023-04-01T05:30:19.443Z,55.21
2023-04-01T05:31:19.532Z,53.52
2023-04-01T05:32:19.368Z,53.23
2023-04-01T05:33:19.352Z,54.08
2023-04-01T05:34:19.350Z,52.79
2023-04-01T05:35:19.343Z,55.22
2023-04-01T05:36:19.448Z,53.07
2023-04-01T05:37:19.378Z,56.16
2023-04-01T05:38:19.331Z,55.32
2023-04-01T05:39:19.319Z,54.87
2023-04-01T05:40:19.332Z,57.35
2023-04-01T05:41:19.368Z,54.64
2023-04-01T05:42:19.329Z,56.95
2023-04-01T05:43:19.324Z,57.12
2023-04-01T05:44:19.305Z,55.41
2023-04-01T05:45:19.290Z,53.04
2023-04-01T05:46:19.362Z,54.11
2023-04-01T05:47:19.309Z,55.21
2023-04-01T05:48:19.340Z,54.99
2023-04-01T05:49:19.288Z,56.29
2023-04-01T05:50:19.288Z,56.58
2023-04-01T05:51:19.282Z,54.61
2023-04-01T05:52:19.320Z,52.25
2023-04-01T05:53:19.428Z,54.93
2023-04-01T05:54:19.261Z,52.12
2023-04-01T05:55:19.259Z,52.46
2023-04-01T05:56:19.290Z,55.94
2023-04-01T05:57:19.327Z,55.82
2023-04-01T05:58:19.212Z,54.75
2023-04-01T05:59:19.251Z,56.88
2023-04-01T06:00:19.213Z,55.28
2023-04-01T06:01:19.219Z,56.07
2023-04-01T06:02:19.288Z,60.01
2023-04-01T06:03:19.278Z,60.36
2023-04-01T06:04:19.359Z,58.54
2023-04-01T06:05:19.202Z,52.22
2023-04-01T06:06:19.186Z,54.34
2023-04-01T06:07:19.225Z,55.22
2023-04-01T06:08:20.113Z,52.73
2023-04-01T06:09:20.227Z,55.73
2023-04-01T06:10:19.170Z,56.22
2023-04-01T06:11:19.185Z,55.21
2023-04-01T06:12:19.168Z,53.50
2023-04-01T06:13:19.218Z,55.39
2023-04-01T06:14:19.152Z,55.69
2023-04-01T06:15:19.267Z,55.28
2023-04-01T06:16:20.192Z,54.12
2023-04-01T06:17:19.164Z,54.29
2023-04-01T06:18:19.206Z,52.88
2023-04-01T06:19:19.221Z,53.67
2023-04-01T06:20:19.122Z,56.55
2023-04-01T06:21:19.119Z,53.93
2023-04-01T06:22:19.134Z,55.10
2023-04-01T06:23:19.094Z,53.74
2023-04-01T06:24:19.148Z,56.09
2023-04-01T06:25:19.109Z,54.38
2023-04-01T06:26:19.144Z,57.35
2023-04-01T06:27:19.127Z,57.02
2023-04-01T06:28:19.096Z,54.44
2023-04-01T06:29:19.126Z,56.06
2023-04-01T06:30:19.070Z,56.03
2023-04-01T06:31:19.129Z,53.45
2023-04-01T06:32:19.193Z,55.23
2023-04-01T06:33:19.085Z,56.10
2023-04-01T06:34:19.058Z,53.60
2023-04-01T06:35:19.093Z,52.87
2023-04-01T06:36:19.080Z,54.57
2023-04-01T06:37:19.035Z,54.73
2023-04-01T06:38:19.045Z,57.19
2023-04-01T06:39:19.058Z,53.48
2023-04-01T06:40:19.107Z,54.55
2023-04-01T06:41:19.034Z,55.30
2023-04-01T06:42:19.028Z,55.02
2023-04-01T06:43:19.203Z,53.98
2023-04-01T06:44:19.028Z,56.71
2023-04-01T06:45:19.063Z,53.49
2023-04-01T06:46:19.046Z,52.43
2023-04-01T06:47:19.033Z,55.68
2023-04-01T06:48:19.004Z,55.63
2023-04-01T06:49:18.983Z,54.81
2023-04-01T06:50:18.983Z,55.43
2023-04-01T06:51:18.980Z,54.90
2023-04-01T06:52:19.020Z,53.37
2023-04-01T06:53:18.970Z,56.88
2023-04-01T06:54:18.983Z,56.68
2023-04-01T06:55:19.580Z,52.75
2023-04-01T06:56:18.968Z,54.41
2023-04-01T06:57:19.277Z,54.32
2023-04-01T06:58:18.952Z,55.22
2023-04-01T06:59:19.920Z,58.09
2023-04-01T07:00:18.935Z,57.43
2023-04-01T07:01:19.943Z,55.72
2023-04-01T07:02:18.954Z,56.36
2023-04-01T07:03:18.908Z,53.66
2023-04-01T07:04:18.966Z,51.51
2023-04-01T07:05:18.889Z,54.59
2023-04-01T07:06:18.909Z,55.84
2023-04-01T07:07:18.937Z,56.43
2023-04-01T07:08:18.886Z,55.11
2023-04-01T07:09:18.881Z,55.03
2023-04-01T07:10:18.864Z,55.54
2023-04-01T07:11:18.881Z,53.93
2023-04-01T07:12:18.901Z,51.87
2023-04-01T07:13:18.878Z,52.94
2023-04-01T07:14:18.860Z,54.63
2023-04-01T07:15:18.855Z,56.99
2023-04-01T07:16:18.988Z,53.13
2023-04-01T07:17:18.907Z,56.02
2023-04-01T07:18:19.853Z,55.50
2023-04-01T07:19:18.837Z,54.09
2023-04-01T07:20:18.832Z,55.71
2023-04-01T07:21:18.834Z,56.25
2023-04-01T07:22:18.827Z,56.65
2023-04-01T07:23:18.847Z,55.19
2023-04-01T07:24:18.820Z,55.97
2023-04-01T07:25:18.843Z,53.29
2023-04-01T07:26:18.792Z,51.93
2023-04-01T07:27:18.802Z,55.73
2023-04-01T07:28:18.847Z,55.82
2023-04-01T07:29:18.801Z,54.92
2023-04-01T07:30:18.780Z,56.95
2023-04-01T07:31:18.803Z,56.08
2023-04-01T07:32:18.769Z,54.06
2023-04-01T07:33:18.777Z,54.61
2023-04-01T07:34:18.760Z,55.20
2023-04-01T07:35:18.822Z,55.72
2023-04-01T07:36:18.743Z,55.22
2023-04-01T07:37:18.723Z,57.58
2023-04-01T07:38:18.804Z,55.81
2023-04-01T07:39:18.761Z,54.54
2023-04-01T07:40:18.713Z,56.50
2023-04-01T07:41:19.232Z,58.63
2023-04-01T07:42:19.756Z,60.41
2023-04-01T07:43:18.702Z,58.23
2023-04-01T07:44:18.808Z,54.94
2023-04-01T07:45:18.743Z,54.82
2023-04-01T07:46:18.777Z,55.38
2023-04-01T07:47:18.740Z,55.41
2023-04-01T07:48:18.667Z,58.09
2023-04-01T07:49:18.688Z,59.19
2023-04-01T07:50:18.682Z,59.46
2023-04-01T07:51:18.657Z,56.44
2023-04-01T07:52:18.672Z,57.94
2023-04-01T07:53:18.671Z,57.70
2023-04-01T07:54:18.707Z,55.04
2023-04-01T07:55:18.646Z,58.49
2023-04-01T07:56:18.665Z,59.89
2023-04-01T07:57:18.644Z,60.47
2023-04-01T07:58:18.635Z,57.36
2023-04-01T07:59:18.627Z,58.69
2023-04-01T08:00:18.630Z,58.62
2023-04-01T08:01:18.625Z,57.06
2023-04-01T08:02:18.724Z,58.89
2023-04-01T08:03:18.721Z,57.66
2023-04-01T08:04:18.665Z,57.19
2023-04-01T08:05:18.586Z,54.68
2023-04-01T08:06:18.614Z,58.38
2023-04-01T08:07:18.608Z,56.19
2023-04-01T08:08:18.588Z,61.57
2023-04-01T08:09:18.550Z,71.72
2023-04-01T08:10:18.646Z,73.79
2023-04-01T08:11:18.552Z,70.55
2023-04-01T08:12:18.556Z,70.16
2023-04-01T08:13:18.527Z,62.09
2023-04-01T08:14:18.530Z,60.27
2023-04-01T08:15:18.508Z,63.00
2023-04-01T08:16:18.754Z,63.71
2023-04-01T08:17:18.526Z,67.40
2023-04-01T08:18:18.524Z,69.37
2023-04-01T08:19:18.580Z,69.12
2023-04-01T08:20:18.485Z,76.60
2023-04-01T08:21:18.489Z,70.66
2023-04-01T08:22:18.463Z,69.55
2023-04-01T08:23:18.479Z,76.83
2023-04-01T08:24:19.767Z,67.90
2023-04-01T08:25:18.465Z,77.78
2023-04-01T08:26:18.448Z,74.73
2023-04-01T08:27:18.449Z,73.10
2023-04-01T08:28:18.464Z,74.21
2023-04-01T08:29:18.422Z,73.78
2023-04-01T08:30:18.412Z,74.01
2023-04-01T08:31:18.480Z,77.87
2023-04-01T08:32:18.415Z,77.45
2023-04-01T08:33:18.423Z,76.71
2023-04-01T08:34:18.418Z,76.81
2023-04-01T08:35:18.409Z,77.84
2023-04-01T08:36:18.452Z,76.70
2023-04-01T08:37:18.394Z,70.98
2023-04-01T08:38:18.495Z,64.99
2023-04-01T08:39:18.432Z,69.35
2023-04-01T08:40:18.352Z,60.87
2023-04-01T08:41:18.333Z,62.41
2023-04-01T08:42:18.341Z,62.72
2023-04-01T08:43:18.328Z,60.90
2023-04-01T08:44:18.379Z,65.31
2023-04-01T08:45:18.312Z,63.16
2023-04-01T08:46:18.435Z,66.79
2023-04-01T08:47:18.307Z,64.37
2023-04-01T08:48:18.371Z,67.64
2023-04-01T08:49:18.383Z,70.19
2023-04-01T08:50:18.299Z,74.90
2023-04-01T08:51:18.363Z,66.41
2023-04-01T08:52:18.341Z,67.68
2023-04-01T08:53:18.278Z,75.75
2023-04-01T08:54:18.323Z,73.42
2023-04-01T08:55:18.266Z,77.35
2023-04-01T08:56:18.274Z,78.00
2023-04-01T08:57:18.274Z,77.54
2023-04-01T08:58:18.235Z,75.94
2023-04-01T08:59:18.236Z,73.55
2023-04-01T09:00:18.228Z,76.54
2023-04-01T09:01:18.270Z,69.06
2023-04-01T09:02:18.248Z,63.24
2023-04-01T09:03:18.298Z,62.22
2023-04-01T09:04:18.236Z,63.30
2023-04-01T09:05:18.176Z,58.27
2023-04-01T09:06:18.281Z,59.29
2023-04-01T09:07:18.496Z,59.09
2023-04-01T09:08:18.214Z,71.45
2023-04-01T09:09:18.150Z,77.91
2023-04-01T09:10:18.156Z,69.81
2023-04-01T09:11:18.397Z,73.21
2023-04-01T09:12:18.172Z,55.32
2023-04-01T09:13:18.123Z,52.71
2023-04-01T09:14:18.116Z,53.81
2023-04-01T09:15:18.137Z,54.54
2023-04-01T09:16:18.160Z,53.64
2023-04-01T09:17:18.166Z,55.75
2023-04-01T09:18:18.094Z,57.53
2023-04-01T09:19:18.086Z,54.92
2023-04-01T09:20:18.066Z,55.51
2023-04-01T09:21:18.074Z,56.59
2023-04-01T09:22:18.101Z,55.44
2023-04-01T09:23:18.101Z,53.96
2023-04-01T09:24:18.057Z,53.59
2023-04-01T09:25:18.043Z,53.08
2023-04-01T09:26:18.056Z,52.13
2023-04-01T09:27:18.069Z,55.70
2023-04-01T09:28:18.047Z,54.59
2023-04-01T09:29:18.067Z,56.37
2023-04-01T09:30:18.015Z,55.89
2023-04-01T09:31:18.015Z,56.88
2023-04-01T09:32:18.011Z,55.09
2023-04-01T09:33:18.082Z,54.75
2023-04-01T09:34:18.028Z,55.15
2023-04-01T09:35:17.970Z,58.03
2023-04-01T09:36:18.036Z,57.10
2023-04-01T09:37:17.972Z,61.42
2023-04-01T09:38:18.035Z,61.54
2023-04-01T09:39:17.964Z,61.36
2023-04-01T09:40:17.954Z,57.26
2023-04-01T09:41:17.943Z,56.22
2023-04-01T09:42:18.069Z,54.63
2023-04-01T09:43:17.954Z,54.39
2023-04-01T09:44:17.923Z,54.05
2023-04-01T09:45:18.066Z,55.53
2023-04-01T09:46:18.001Z,55.34
2023-04-01T09:47:18.030Z,55.48
2023-04-01T09:48:17.906Z,56.35
2023-04-01T09:49:17.877Z,54.78
2023-04-01T09:50:18.024Z,56.58
2023-04-01T09:51:17.905Z,57.88
2023-04-01T09:52:17.937Z,57.99
2023-04-01T09:53:17.846Z,55.16
2023-04-01T09:54:17.868Z,55.26
2023-04-01T09:55:17.901Z,56.40
2023-04-01T09:56:17.833Z,54.17
2023-04-01T09:57:17.931Z,55.11
2023-04-01T09:58:17.813Z,54.85
2023-04-01T09:59:17.829Z,57.41
2023-04-01T10:00:17.900Z,56.72
2023-04-01T10:01:17.847Z,56.02
2023-04-01T10:02:17.786Z,55.41
2023-04-01T10:03:17.784Z,54.36
2023-04-01T10:04:17.836Z,54.92
2023-04-01T10:05:17.794Z,56.81
2023-04-01T10:06:17.833Z,56.78
2023-04-01T10:07:17.768Z,54.73
2023-04-01T10:08:17.730Z,53.31
2023-04-01T10:09:17.780Z,53.97
2023-04-01T10:10:17.852Z,53.36
2023-04-01T10:11:17.766Z,55.91
2023-04-01T10:12:17.761Z,54.14
2023-04-01T10:13:17.710Z,54.23
2023-04-01T10:14:17.730Z,53.25
2023-04-01T10:15:17.683Z,54.16
2023-04-01T10:16:17.790Z,54.99
2023-04-01T10:17:17.672Z,54.23
2023-04-01T10:18:17.676Z,55.16
2023-04-01T10:19:17.763Z,54.27
2023-04-01T10:20:17.664Z,55.77
2023-04-01T10:21:17.619Z,53.78
2023-04-01T10:22:17.628Z,55.62
2023-04-01T10:23:17.650Z,54.86
2023-04-01T10:24:17.656Z,51.29
2023-04-01T10:25:18.613Z,54.85
2023-04-01T10:26:17.597Z,54.61
2023-04-01T10:27:17.646Z,52.43
2023-04-01T10:28:17.585Z,53.35
2023-04-01T10:29:17.785Z,53.12
2023-04-01T10:30:17.584Z,54.91
2023-04-01T10:31:17.637Z,55.43
2023-04-01T10:32:17.559Z,53.86
2023-04-01T10:33:17.559Z,52.95
2023-04-01T10:34:17.732Z,54.08
2023-04-01T10:35:17.550Z,55.07
2023-04-01T10:36:18.054Z,54.85
2023-04-01T10:37:17.695Z,55.75
2023-04-01T10:38:18.039Z,54.90
2023-04-01T10:39:17.530Z,55.93
2023-04-01T10:40:17.508Z,54.61
2023-04-01T10:41:17.485Z,55.20
2023-04-01T10:42:18.127Z,54.91
2023-04-01T10:43:17.871Z,54.42
2023-04-01T10:44:17.486Z,53.62
2023-04-01T10:45:17.477Z,55.07
2023-04-01T10:46:17.754Z,55.60
2023-04-01T10:47:17.446Z,53.82
2023-04-01T10:48:17.464Z,54.91
2023-04-01T10:49:17.491Z,55.51
2023-04-01T10:50:17.445Z,52.88
2023-04-01T10:51:17.486Z,54.26
2023-04-01T10:52:17.531Z,54.64
2023-04-01T10:53:17.401Z,54.97
2023-04-01T10:54:17.412Z,55.94
2023-04-01T10:55:17.584Z,51.75
2023-04-01T10:56:17.391Z,54.38
2023-04-01T10:57:17.722Z,57.29
2023-04-01T10:58:17.340Z,53.54
2023-04-01T10:59:17.385Z,54.40
2023-04-01T11:00:17.587Z,54.99
2023-04-01T11:01:17.386Z,55.31
2023-04-01T11:02:17.472Z,53.79
2023-04-01T11:03:17.619Z,53.94
2023-04-01T11:04:17.320Z,55.89
2023-04-01T11:05:20.197Z,54.05
2023-04-01T11:06:17.308Z,56.71
2023-04-01T11:07:17.311Z,54.26
2023-04-01T11:08:17.301Z,54.17
2023-04-01T11:09:17.269Z,52.05
2023-04-01T11:10:17.318Z,51.55
2023-04-01T11:11:17.241Z,54.28
2023-04-01T11:12:17.268Z,53.16
2023-04-01T11:13:17.301Z,55.02
2023-04-01T11:14:17.336Z,54.54
2023-04-01T11:15:17.264Z,52.56
2023-04-01T11:16:18.368Z,52.50
2023-04-01T11:17:18.209Z,53.75
2023-04-01T11:18:17.212Z,56.51
2023-04-01T11:19:18.189Z,54.96
2023-04-01T11:20:17.173Z,54.15
2023-04-01T11:21:17.182Z,55.49
2023-04-01T11:22:17.200Z,54.19
2023-04-01T11:23:17.174Z,55.63
2023-04-01T11:24:17.147Z,55.34
2023-04-01T11:25:17.130Z,55.03
2023-04-01T11:26:18.164Z,56.90
2023-04-01T11:27:17.200Z,55.69
2023-04-01T11:28:17.133Z,55.41
2023-04-01T11:29:17.538Z,55.36
2023-04-01T11:30:17.103Z,56.54
2023-04-01T11:31:17.122Z,54.48
2023-04-01T11:32:17.115Z,56.48
2023-04-01T11:33:19.424Z,56.09
2023-04-01T11:34:17.097Z,53.73
2023-04-01T11:35:17.063Z,55.57
2023-04-01T11:36:17.486Z,55.72
2023-04-01T11:37:17.102Z,57.67
2023-04-01T11:38:17.050Z,54.82
2023-04-01T11:39:17.032Z,53.79
2023-04-01T11:40:17.062Z,56.47
2023-04-01T11:41:17.019Z,55.00
2023-04-01T11:42:17.019Z,57.38
2023-04-01T11:43:26.113Z,56.45
2023-04-01T11:44:19.041Z,55.58
2023-04-01T11:45:17.020Z,55.44
2023-04-01T11:46:17.071Z,55.93
2023-04-01T11:47:16.975Z,54.10
2023-04-01T11:48:17.047Z,55.71
2023-04-01T11:49:16.951Z,56.50
2023-04-01T11:50:16.984Z,55.25
2023-04-01T11:51:16.926Z,55.91
2023-04-01T11:52:16.943Z,54.23
2023-04-01T11:53:16.927Z,56.71
2023-04-01T11:54:16.912Z,57.42
2023-04-01T11:55:16.939Z,55.76
2023-04-01T11:56:16.971Z,57.84
2023-04-01T11:57:16.928Z,57.49
2023-04-01T11:58:16.875Z,57.19
2023-04-01T11:59:16.917Z,56.81
2023-04-01T12:00:16.900Z,57.25
2023-04-01T12:01:16.876Z,56.92
2023-04-01T12:02:18.256Z,56.32
2023-04-01T12:03:17.537Z,57.19
2023-04-01T12:04:16.892Z,57.93
2023-04-01T12:05:16.866Z,57.67
2023-04-01T12:06:17.398Z,57.08
2023-04-01T12:07:16.886Z,56.92
2023-04-01T12:08:17.148Z,59.75
2023-04-01T12:09:16.833Z,59.52
2023-04-01T12:10:16.824Z,59.86
2023-04-01T12:11:16.772Z,57.77
2023-04-01T12:12:16.818Z,57.92
2023-04-01T12:13:16.810Z,56.19
2023-04-01T12:14:16.756Z,58.00
2023-04-01T12:15:16.745Z,56.41
2023-04-01T12:16:16.830Z,56.74
2023-04-01T12:17:16.734Z,56.78
2023-04-01T12:18:16.756Z,56.68
2023-04-01T12:19:16.737Z,55.52
2023-04-01T12:20:16.847Z,55.30
2023-04-01T12:21:16.761Z,55.30
2023-04-01T12:22:16.712Z,57.45
2023-04-01T12:23:16.726Z,56.00
2023-04-01T12:24:16.713Z,55.76
2023-04-01T12:25:16.709Z,55.93
2023-04-01T12:26:16.690Z,52.72
2023-04-01T12:27:16.694Z,51.88
2023-04-01T12:28:16.691Z,53.30
2023-04-01T12:29:16.660Z,56.75
2023-04-01T12:30:16.637Z,55.07
2023-04-01T12:31:16.662Z,55.31
2023-04-01T12:32:16.750Z,55.32
2023-04-01T12:33:16.684Z,56.29
2023-04-01T12:34:16.650Z,54.73
2023-04-01T12:35:16.629Z,57.02
2023-04-01T12:36:16.637Z,55.46
2023-04-01T12:37:16.653Z,55.32
2023-04-01T12:38:16.598Z,53.75
2023-04-01T12:39:16.599Z,52.27
2023-04-01T12:40:16.609Z,54.14
2023-04-01T12:41:16.562Z,55.80
2023-04-01T12:42:16.546Z,53.77
2023-04-01T12:43:16.673Z,55.20
2023-04-01T12:44:16.600Z,55.03
2023-04-01T12:45:16.574Z,56.53
2023-04-01T12:46:16.627Z,56.74
2023-04-01T12:47:16.551Z,55.33
2023-04-01T12:48:16.548Z,53.86
2023-04-01T12:49:16.837Z,53.32
2023-04-01T12:50:16.502Z,54.51
2023-04-01T12:51:16.486Z,53.17
2023-04-01T12:52:16.494Z,53.17